Date,TemperatureHighF,TemperatureAvgF,TemperatureLowF,DewpointHighF,DewpointAvgF,DewpointLowF,HumidityHigh,HumidityAvg,HumidityLow,PressureMaxIn,PressureMinIn,WindSpeedMaxMPH,WindSpeedAvgMPH,GustSpeedMaxMPH,PrecipitationSumIn
2014-1-1,19.6,2.9,-13.1,12.9,-2.8,-17.0,100,78,58,30.33,30.04,12,1,18,0.00
2014-1-2,9.4,2.7,-2.1,5.3,-2.0,-6.2,92,80,73,30.34,29.94,8,2,15,0.00
2014-1-3,7.9,-0.3,-18.5,2.9,-5.5,-23.3,91,78,64,30.30,29.82,14,3,20,0.00
2014-1-4,15.0,-5.0,-22.2,9.0,-9.5,-27.1,99,80,65,30.41,30.11,3,0,4,0.00
2014-1-5,28.6,14.5,-1.1,27.3,11.2,-4.5,95,87,69,30.25,29.99,8,0,12,0.00
2014-1-6,38.8,33.3,27.6,38.3,31.5,17.0,98,93,64,29.99,29.14,7,0,15,0.00
2014-1-7,27.5,14.7,6.0,18.2,2.3,-6.1,75,58,42,29.94,29.29,14,2,25,0.00
2014-1-8,21.9,12.3,3.8,6.6,2.0,-4.8,87,64,47,30.30,29.94,7,1,12,0.00
2014-1-9,23.9,8.4,-2.3,11.5,1.9,-5.7,88,76,48,30.56,30.27,9,1,13,0.00
2014-1-10,25.1,11.3,-3.1,19.4,6.8,-7.0,90,82,70,30.51,30.19,3,0,4,0.00
2014-1-11,34.3,29.9,18.4,33.5,28.5,15.4,97,94,87,30.19,29.06,3,0,4,0.00
2014-1-12,45.2,39.0,30.1,40.1,31.2,25.5,98,76,51,29.80,29.09,13,2,20,0.31
2014-1-13,42.4,32.2,23.8,32.0,27.9,22.3,95,85,59,29.98,29.76,4,0,5,0.21
2014-1-14,38.3,34.9,32.5,37.5,33.7,30.7,97,96,92,29.77,29.54,4,0,5,0.86
2014-1-15,41.9,33.7,28.3,38.2,32.3,27.1,98,95,82,29.91,29.62,2,0,4,0.21
2014-1-16,35.2,31.9,28.2,34.4,31.2,27.5,98,97,96,29.88,29.79,2,0,4,0.00
2014-1-17,39.0,33.5,27.6,37.0,31.7,26.1,98,93,78,29.84,29.77,3,0,6,0.18
2014-1-18,36.6,29.6,23.9,30.3,27.0,22.4,96,91,66,29.82,29.59,6,0,12,0.00
2014-1-19,33.9,28.2,22.9,32.4,25.0,21.6,97,88,76,29.61,29.32,5,1,13,0.07
2014-1-20,37.2,29.0,9.2,28.3,20.6,-2.4,80,71,50,29.81,29.32,12,2,15,0.04
2014-1-21,14.0,7.5,-0.6,-2.4,-4.5,-6.8,82,58,43,30.01,29.81,8,2,14,0.00
2014-1-22,16.1,8.3,2.8,-0.9,-4.5,-7.7,70,56,43,29.91,29.58,12,3,17,0.00
2014-1-23,19.8,5.6,-6.5,4.5,-2.9,-10.8,84,69,50,29.98,29.77,8,1,12,0.00
2014-1-24,15.1,3.9,-9.7,0.7,-5.7,-14.2,92,66,41,30.11,29.88,8,0,10,0.00
2014-1-25,30.2,20.2,11.0,22.6,12.2,0.4,92,71,58,29.88,29.12,6,0,12,0.00
2014-1-26,22.3,15.3,9.1,18.9,1.6,-9.0,88,56,37,29.78,29.13,12,2,25,0.00
2014-1-27,32.8,20.6,14.9,29.1,9.4,-2.2,93,64,37,29.85,29.39,17,2,24,0.01
2014-1-28,18.2,12.3,0.1,-0.9,-4.3,-8.3,69,47,36,30.17,29.85,11,1,17,0.00
2014-1-29,21.7,13.5,0.9,2.1,-1.3,-4.5,79,53,35,30.11,29.78,6,1,12,0.00
2014-1-30,26.0,13.6,0.3,10.1,4.0,-4.2,85,66,48,30.32,30.04,6,0,9,0.00
2014-1-31,39.7,27.3,11.4,21.2,16.0,7.8,92,64,43,30.06,29.86,10,1,15,0.02